TNCE Informações do Aeroporto

Informações da Pista
Pista 06 Comprimento 4265 ft Largura 100 ft
Elevação 129 ft Limite 0 ft Heading 50
Pista 24 Comprimento 4265 ft Largura 100 ft
Elevação 95 ft Limite 0 ft Heading 230
Frequências do Aeroporto
Tipo INFO Nome FIS Frequência 118.1 MHZ
Navaids do Aeroporto
Tipo NDB Nome St.eEstatius Frequência 235 KHZ
Informações meteorológicas do aeroporto e NOTAM
ADDS - METARS form results

(0627 UTC 25 September 2020)
Data provider http://aviationweather.gov/metar/data/
 
METAR text: TNCE 250555Z AUTO VRB04KT //// // ///////// 27/23 Q1016 RE//
Conditions at: TNCE (FDR ARPT/ORANJES, AN) observed 0555 UTC 25 September 2020
Temperature: 27.0°C (81°F)
Dewpoint: 23.0°C (73°F) [RH = 79%]
Pressure (altimeter): 30.00 inches Hg (1016.0 mb)
Winds: variable direction winds at 5 MPH (4 knots; 2.1 m/s)
Visibility: missing
Ceiling: unknown
Clouds: missing
Weather: no significant weather observed at this time